createdAt,value
2018-10-12T11:30:55.125Z,21.98
2018-10-12T11:40:11.816Z,22.01
2018-10-12T11:41:11.749Z,21.95
2018-10-12T11:42:11.667Z,21.95
2018-10-12T11:43:11.627Z,21.92
2018-10-12T11:44:11.516Z,22.01
2018-10-12T11:45:11.458Z,21.95
2018-10-12T11:46:11.340Z,21.98
2018-10-12T11:47:11.246Z,21.98
2018-10-12T11:48:11.149Z,21.99
2018-10-12T11:49:11.047Z,22.04
2018-10-12T11:50:10.974Z,22.06
2018-10-12T11:51:10.843Z,22.01
2018-10-12T11:52:10.796Z,22.10
2018-10-12T11:53:10.638Z,22.06
2018-10-12T11:54:10.525Z,22.10
2018-10-12T11:55:10.541Z,22.04
2018-10-12T11:56:10.304Z,22.10
2018-10-12T11:57:10.197Z,22.04
2018-10-12T11:58:10.089Z,22.16
2018-10-12T11:59:09.985Z,22.16
2018-10-12T12:00:09.918Z,22.14
2018-10-12T12:01:09.846Z,22.14
2018-10-12T12:02:09.652Z,22.14
2018-10-12T12:03:09.554Z,22.12
2018-10-12T12:04:09.420Z,22.16
2018-10-12T12:05:09.309Z,22.14
2018-10-12T12:06:09.227Z,22.19
2018-10-12T12:07:09.144Z,22.17
2018-10-12T12:08:08.979Z,22.16
2018-10-12T12:09:08.861Z,22.13
2018-10-12T12:10:08.771Z,22.17
2018-10-12T12:11:08.664Z,22.16
2018-10-12T12:12:08.525Z,22.16
2018-10-12T12:13:08.405Z,22.22
2018-10-12T12:14:08.307Z,22.23
2018-10-12T12:15:08.180Z,22.16
2018-10-12T12:16:08.093Z,22.31
2018-10-12T12:17:07.955Z,22.23
2018-10-12T12:18:07.841Z,22.22
2018-10-12T12:19:07.736Z,22.29
2018-10-12T12:20:07.618Z,22.31
2018-10-12T12:21:07.528Z,22.34
2018-10-12T12:22:07.389Z,22.28
2018-10-12T12:23:07.275Z,22.23
2018-10-12T12:24:07.161Z,22.27
2018-10-12T12:25:07.049Z,22.35
2018-10-12T12:26:06.958Z,22.31
2018-10-12T12:27:06.815Z,22.37
2018-10-12T12:28:06.694Z,22.41
2018-10-12T12:29:06.574Z,22.39
2018-10-12T12:30:06.459Z,22.41
2018-10-12T12:31:06.361Z,22.41
2018-10-12T12:32:06.216Z,22.46
2018-10-12T12:33:06.099Z,22.43
2018-10-12T12:34:05.979Z,22.53
2018-10-12T12:35:05.961Z,22.52
2018-10-12T12:36:05.914Z,22.39
2018-10-12T12:37:05.629Z,22.46
2018-10-12T12:38:05.503Z,22.56
2018-10-12T12:39:05.382Z,22.43
2018-10-12T12:40:05.255Z,22.52
2018-10-12T12:41:05.138Z,22.56
2018-10-12T12:42:05.045Z,22.56
2018-10-12T12:43:04.899Z,22.59
2018-10-12T12:44:04.782Z,22.62
2018-10-12T12:45:04.662Z,22.60
2018-10-12T12:46:04.548Z,22.57
2018-10-12T12:47:04.483Z,22.64
2018-10-12T12:48:04.519Z,22.64
2018-10-12T12:49:04.515Z,22.60
2018-10-12T12:50:04.094Z,22.62
2018-10-12T12:51:03.936Z,22.64
2018-10-12T12:52:03.847Z,22.64
2018-10-12T12:53:03.709Z,22.71
2018-10-12T12:54:03.601Z,22.64
2018-10-12T12:55:03.483Z,22.68
2018-10-12T12:56:03.363Z,22.68
2018-10-12T12:57:03.285Z,22.74
2018-10-12T12:58:03.133Z,22.74
2018-10-12T12:59:03.460Z,22.71
2018-10-12T13:00:02.947Z,22.72
2018-10-12T13:01:02.777Z,22.75
2018-10-12T13:02:02.653Z,22.74
2018-10-12T13:03:02.556Z,22.80
2018-10-12T13:04:02.413Z,22.74
2018-10-12T13:05:02.293Z,22.75
2018-10-12T13:06:02.177Z,22.72
2018-10-12T13:07:02.055Z,22.82
2018-10-12T13:08:01.962Z,22.84
2018-10-12T13:09:01.819Z,22.84
2018-10-12T13:10:01.702Z,22.78
2018-10-12T13:11:01.582Z,22.80
2018-10-12T13:12:01.454Z,22.84
2018-10-12T13:13:01.353Z,22.87
2018-10-12T13:14:01.210Z,22.90
2018-10-12T13:15:01.092Z,22.89
2018-10-12T13:16:00.974Z,22.86
2018-10-12T13:17:00.847Z,22.84
2018-10-12T13:18:00.752Z,22.93
2018-10-12T13:19:00.604Z,22.89
2018-10-12T13:20:00.488Z,22.92
2018-10-12T13:21:00.357Z,22.92
2018-10-12T13:22:00.236Z,22.89
2018-10-12T13:23:00.132Z,22.89
2018-10-12T13:23:59.988Z,22.90
2018-10-12T13:24:59.864Z,22.92
2018-10-12T13:25:59.935Z,22.89
2018-10-12T13:26:59.635Z,22.93
2018-10-12T13:27:59.688Z,22.93
2018-10-12T13:28:59.382Z,22.92
2018-10-12T13:29:59.259Z,22.96
2018-10-12T13:30:59.139Z,22.93
2018-10-12T13:31:59.132Z,22.92
2018-10-12T13:32:58.901Z,22.99
2018-10-12T13:33:58.803Z,22.94
2018-10-12T13:34:58.659Z,22.87
2018-10-12T13:35:58.538Z,22.94
2018-10-12T13:36:58.411Z,22.92
2018-10-12T13:37:58.297Z,22.96
2018-10-12T13:38:58.200Z,22.93
2018-10-12T13:39:58.133Z,22.99
2018-10-12T13:40:57.931Z,22.96
2018-10-12T13:41:57.812Z,22.92
2018-10-12T13:42:57.688Z,22.94
2018-10-12T13:43:57.608Z,22.94
2018-10-12T13:44:57.446Z,22.93
2018-10-12T13:45:57.321Z,22.89
2018-10-12T13:46:57.198Z,22.97
2018-10-12T13:47:57.077Z,22.96
2018-10-12T13:48:56.980Z,22.96
2018-10-12T13:49:56.828Z,22.89
2018-10-12T13:50:56.707Z,22.96
2018-10-12T13:51:56.584Z,22.99
2018-10-12T13:52:56.451Z,22.97
2018-10-12T13:53:56.351Z,22.97
2018-10-12T13:54:56.203Z,22.97
2018-10-12T13:55:56.077Z,23.05
2018-10-12T13:56:55.948Z,22.96
2018-10-12T13:57:55.831Z,23.02
2018-10-12T13:58:55.731Z,23.09
2018-10-12T13:59:55.578Z,22.97
2018-10-12T14:00:55.457Z,23.02
2018-10-12T14:01:55.343Z,23.01
2018-10-12T14:02:55.225Z,23.11
2018-10-12T14:03:55.168Z,23.05
2018-10-12T14:04:54.996Z,23.12
2018-10-12T14:05:54.861Z,23.05
2018-10-12T14:06:54.728Z,23.05
2018-10-12T14:07:54.600Z,23.04
2018-10-12T14:08:54.475Z,23.02
2018-10-12T14:09:54.370Z,23.15
2018-10-12T14:10:54.217Z,23.07
2018-10-12T14:11:54.094Z,23.15
2018-10-12T14:12:53.963Z,23.04
2018-10-12T14:13:53.841Z,23.09
2018-10-12T14:14:53.786Z,23.17
2018-10-12T14:15:53.595Z,23.02
2018-10-12T14:16:53.470Z,23.05
2018-10-12T14:17:53.368Z,23.07
2018-10-12T14:18:53.459Z,23.07
2018-10-12T14:19:53.131Z,23.01
2018-10-12T14:20:52.973Z,23.05
2018-10-12T14:21:52.880Z,23.01
2018-10-12T14:22:52.727Z,23.04
2018-10-12T14:23:52.603Z,23.04
2018-10-12T14:24:52.500Z,23.02
2018-10-12T14:25:52.359Z,23.04
2018-10-12T14:26:52.382Z,23.04
2018-10-12T14:27:52.104Z,23.02
2018-10-12T14:28:51.984Z,23.05
2018-10-12T14:29:51.890Z,23.04
2018-10-12T14:30:51.748Z,23.04
2018-10-12T14:31:51.646Z,23.01
2018-10-12T14:32:51.530Z,22.97
2018-10-12T14:33:51.448Z,22.96
2018-10-12T14:34:51.308Z,22.92
2018-10-12T14:35:51.217Z,22.96
2018-10-12T14:36:51.023Z,23.01
2018-10-12T14:37:50.926Z,22.90
2018-10-12T14:38:50.763Z,23.02
2018-10-12T14:39:50.672Z,22.93
2018-10-12T14:40:50.518Z,22.94
2018-10-12T14:41:50.388Z,22.90
2018-10-12T14:42:50.396Z,22.93
2018-10-12T14:43:50.166Z,22.90
2018-10-12T14:44:50.079Z,23.01
2018-10-12T14:45:49.954Z,22.92
2018-10-12T14:46:49.772Z,22.96
2018-10-12T14:47:49.645Z,22.94
2018-10-12T14:48:49.524Z,22.97
2018-10-12T14:49:49.500Z,22.93
2018-10-12T14:50:49.300Z,22.94
2018-10-12T14:51:49.147Z,22.96
2018-10-12T14:52:49.027Z,22.99
2018-10-12T14:53:48.895Z,22.96
2018-10-12T14:54:49.418Z,22.90
2018-10-12T14:55:48.705Z,22.94
2018-10-12T14:56:48.526Z,22.90
2018-10-12T14:57:48.408Z,22.96
2018-10-12T14:58:48.289Z,22.92
2018-10-12T14:59:48.167Z,22.92
2018-10-12T15:00:48.148Z,22.96
2018-10-12T15:01:47.908Z,22.96
2018-10-12T15:02:47.820Z,22.99
2018-10-12T15:03:47.709Z,22.90
2018-10-12T15:04:47.532Z,22.90
2018-10-12T15:05:47.483Z,22.87
2018-10-12T15:06:47.283Z,22.90
2018-10-12T15:07:47.156Z,22.93
2018-10-12T15:08:47.110Z,22.94
2018-10-12T15:09:46.988Z,22.96
2018-10-12T15:10:46.850Z,22.87
2018-10-12T15:11:46.766Z,22.94
2018-10-12T15:12:46.547Z,22.89
2018-10-12T15:13:46.435Z,22.94
2018-10-12T15:14:46.313Z,22.92
2018-10-12T15:15:46.202Z,22.96
2018-10-12T15:16:46.047Z,22.94
2018-10-12T15:17:45.931Z,22.94
2018-10-12T15:18:45.799Z,22.92
2018-10-12T15:19:45.670Z,22.87
2018-10-12T15:20:45.665Z,22.90
2018-10-12T15:21:45.419Z,22.90
2018-10-12T15:22:45.312Z,22.93
2018-10-12T15:23:45.171Z,22.87
2018-10-12T15:24:45.063Z,22.89
2018-10-12T15:25:45.063Z,22.93
2018-10-12T15:26:44.804Z,22.96
2018-10-12T15:27:44.678Z,22.92
2018-10-12T15:28:44.552Z,22.97
2018-10-12T15:29:44.425Z,22.94
2018-10-12T15:30:44.298Z,22.94
2018-10-12T15:31:44.204Z,22.89
2018-10-12T15:32:44.040Z,22.90
2018-10-12T15:33:43.919Z,22.93
2018-10-12T15:34:43.845Z,22.92
2018-10-12T15:35:43.664Z,22.94
2018-10-12T15:36:44.005Z,22.92
2018-10-12T15:37:43.490Z,22.97
2018-10-12T15:38:43.984Z,22.93
2018-10-12T15:39:43.147Z,22.94
2018-10-12T15:40:43.025Z,22.87
2018-10-12T15:41:42.929Z,22.87
2018-10-12T15:42:42.831Z,22.90
2018-10-12T15:43:42.645Z,22.93
2018-10-12T15:44:42.564Z,22.93
2018-10-12T15:45:42.392Z,22.92
2018-10-12T15:46:42.297Z,22.92
2018-10-12T15:47:42.157Z,22.93
2018-10-12T15:48:42.030Z,22.90
2018-10-12T15:49:41.914Z,22.86
2018-10-12T15:50:42.216Z,22.93
2018-10-12T15:51:41.820Z,22.96
2018-10-12T15:52:41.546Z,22.94
2018-10-12T15:53:41.426Z,22.96
2018-10-12T15:54:41.308Z,22.92
2018-10-12T15:55:41.189Z,22.93
2018-10-12T15:56:41.098Z,22.93
2018-10-12T15:57:40.955Z,23.04
2018-10-12T15:58:40.829Z,22.94
2018-10-12T15:59:40.707Z,22.94
2018-10-12T16:00:40.589Z,22.92
2018-10-12T16:01:40.503Z,22.93
2018-10-12T16:02:40.347Z,22.90
2018-10-12T16:03:40.223Z,22.92
2018-10-12T16:04:40.109Z,22.89
2018-10-12T16:05:39.991Z,22.96
2018-10-12T16:06:40.175Z,22.94
2018-10-12T16:07:39.755Z,22.87
2018-10-12T16:08:39.639Z,22.92
2018-10-12T16:09:39.529Z,22.96
2018-10-12T16:10:39.417Z,22.89
2018-10-12T16:11:39.331Z,22.90
2018-10-12T16:12:39.197Z,22.92
2018-10-12T16:13:39.089Z,22.93
2018-10-12T16:14:39.030Z,22.89
2018-10-12T16:15:38.848Z,22.90
2018-10-12T16:16:38.761Z,22.97
2018-10-12T16:17:38.625Z,23.01
2018-10-12T16:18:38.505Z,22.94
2018-10-12T16:19:38.389Z,22.93
2018-10-12T16:20:38.278Z,22.93
2018-10-12T16:21:39.987Z,22.92
2018-10-12T16:22:38.090Z,22.94
2018-10-12T16:23:37.925Z,22.94
2018-10-12T16:24:37.796Z,22.96
2018-10-12T16:25:37.683Z,22.93
2018-10-12T16:26:37.594Z,23.02
2018-10-12T16:27:37.448Z,22.97
2018-10-12T16:28:37.326Z,23.01
2018-10-12T16:29:37.206Z,22.96
2018-10-12T16:30:37.087Z,23.04
2018-10-12T16:31:36.993Z,23.04
2018-10-12T16:32:36.870Z,23.05
2018-10-12T16:33:36.729Z,23.02
2018-10-12T16:34:36.610Z,23.08
2018-10-12T16:35:36.520Z,23.11
2018-10-12T16:36:36.431Z,23.02
2018-10-12T16:37:36.280Z,22.97
2018-10-12T16:38:36.133Z,23.02
2018-10-12T16:39:36.013Z,23.05
2018-10-12T16:40:35.894Z,22.99
2018-10-12T16:41:35.771Z,23.02
2018-10-12T16:42:35.673Z,23.01
2018-10-12T16:43:35.527Z,23.04
2018-10-12T16:44:35.406Z,23.15
2018-10-12T16:45:35.283Z,23.05
2018-10-12T16:46:35.166Z,23.15
2018-10-12T16:47:35.071Z,23.04
2018-10-12T16:48:34.962Z,23.09
2018-10-12T16:49:34.810Z,23.14
2018-10-12T16:50:34.682Z,23.12
2018-10-12T16:51:34.562Z,23.17
2018-10-12T16:52:34.462Z,23.19
2018-10-12T16:53:34.312Z,23.02
2018-10-12T16:54:34.189Z,23.11
2018-10-12T16:55:34.058Z,23.19
2018-10-12T16:56:33.933Z,23.20
2018-10-12T16:57:33.828Z,23.12
2018-10-12T16:58:33.676Z,23.09
2018-10-12T16:59:33.546Z,23.20
2018-10-12T17:00:33.423Z,23.14
2018-10-12T17:01:33.301Z,23.19
2018-10-12T17:02:33.202Z,23.15
2018-10-12T17:03:33.053Z,23.14
2018-10-12T17:04:32.931Z,23.26
2018-10-12T17:05:32.802Z,23.12
2018-10-12T17:06:32.670Z,23.12
2018-10-12T17:07:32.564Z,23.19
2018-10-12T17:08:32.413Z,23.20
2018-10-12T17:09:32.286Z,23.23
2018-10-12T17:10:32.162Z,23.11
2018-10-12T17:11:32.049Z,23.20
2018-10-12T17:12:31.982Z,23.14
2018-10-12T17:13:31.804Z,23.17
2018-10-12T17:14:31.680Z,23.17
2018-10-12T17:15:31.564Z,23.11
2018-10-12T17:16:31.436Z,23.14
2018-10-12T17:17:31.342Z,23.12
2018-10-12T17:18:31.313Z,23.19
2018-10-12T17:19:31.075Z,23.09
2018-10-12T17:20:30.957Z,23.11
2018-10-12T17:21:30.832Z,23.19
2018-10-12T17:22:30.733Z,23.11
2018-10-12T17:23:30.583Z,23.19
2018-10-12T17:24:30.457Z,23.12
2018-10-12T17:25:30.336Z,23.17
2018-10-12T17:26:30.211Z,23.19
2018-10-12T17:27:30.117Z,23.11
2018-10-12T17:28:29.974Z,23.17
2018-10-12T17:29:29.880Z,23.05
2018-10-12T17:30:29.770Z,23.14
2018-10-12T17:31:29.616Z,23.11
2018-10-12T17:32:29.541Z,23.09
2018-10-12T17:33:29.377Z,23.20
2018-10-12T17:34:29.262Z,23.17
2018-10-12T17:35:29.159Z,23.09
2018-10-12T17:36:29.047Z,23.17
2018-10-12T17:37:28.940Z,23.22
2018-10-12T17:38:28.798Z,23.17
2018-10-12T17:39:28.684Z,23.22
2018-10-12T17:40:28.563Z,23.17
2018-10-12T17:41:28.447Z,23.19
2018-10-12T17:42:28.521Z,23.22
2018-10-12T17:43:28.206Z,23.17
2018-10-12T17:44:28.092Z,23.09
2018-10-12T17:45:27.973Z,23.11
2018-10-12T17:46:27.860Z,23.19
2018-10-12T17:47:27.812Z,23.15
2018-10-12T17:48:27.623Z,23.19
2018-10-12T17:49:27.639Z,23.14
2018-10-12T17:50:27.390Z,23.08
2018-10-12T17:51:27.275Z,23.17
2018-10-12T17:52:27.192Z,23.23
2018-10-12T17:53:27.068Z,23.22
2018-10-12T17:54:26.941Z,23.22
2018-10-12T17:55:26.825Z,23.26
2018-10-12T17:56:26.730Z,23.22
2018-10-12T17:57:26.620Z,23.22
2018-10-12T17:58:26.480Z,23.22
2018-10-12T17:59:26.362Z,23.17
2018-10-12T18:00:26.312Z,23.15
2018-10-12T18:01:26.303Z,23.23
2018-10-12T18:02:26.039Z,23.24
2018-10-12T18:03:25.892Z,23.20
2018-10-12T18:04:25.784Z,23.26
2018-10-12T18:05:25.656Z,23.19
2018-10-12T18:06:25.753Z,23.19
2018-10-12T18:07:25.437Z,23.20
2018-10-12T18:08:25.294Z,23.22
2018-10-12T18:09:25.178Z,23.20
2018-10-12T18:10:25.067Z,23.20
2018-10-12T18:11:24.942Z,23.26
2018-10-12T18:12:24.865Z,23.24
2018-10-12T18:13:24.701Z,23.15
2018-10-12T18:14:24.642Z,23.23
2018-10-12T18:15:24.458Z,23.15
2018-10-12T18:16:24.335Z,23.17
2018-10-12T18:17:24.213Z,23.23
2018-10-12T18:18:24.207Z,23.26
2018-10-12T18:19:23.992Z,23.22
2018-10-12T18:20:23.853Z,23.27
2018-10-12T18:21:23.743Z,23.27
2018-10-12T18:22:23.630Z,23.35
2018-10-12T18:23:23.557Z,23.34
2018-10-12T18:24:23.596Z,23.31
2018-10-12T18:25:23.264Z,23.38
2018-10-12T18:26:23.142Z,23.35
2018-10-12T18:27:23.009Z,23.23
2018-10-12T18:28:22.921Z,23.32
2018-10-12T18:29:22.763Z,23.31
2018-10-12T18:30:22.642Z,23.40
2018-10-12T18:31:22.522Z,23.35
2018-10-12T18:32:22.406Z,23.35
2018-10-12T18:33:22.314Z,23.20
2018-10-12T18:34:22.185Z,23.38
2018-10-12T18:35:22.043Z,23.34
2018-10-12T18:36:21.989Z,23.29
2018-10-12T18:37:21.800Z,23.35
2018-10-12T18:38:21.701Z,23.29
2018-10-12T18:39:21.556Z,23.32
2018-10-12T18:40:21.428Z,23.35
2018-10-12T18:41:21.307Z,23.35
2018-10-12T18:42:21.185Z,23.35
2018-10-12T18:43:21.097Z,23.31
2018-10-12T18:44:20.944Z,23.35
2018-10-12T18:45:20.824Z,23.32
2018-10-12T18:46:20.703Z,23.35
2018-10-12T18:47:20.578Z,23.34
2018-10-12T18:48:20.507Z,23.29
2018-10-12T18:49:20.348Z,23.32
2018-10-12T18:50:20.231Z,23.29
2018-10-12T18:51:20.092Z,23.39
2018-10-12T18:52:19.975Z,23.35
2018-10-12T18:53:19.887Z,23.32
2018-10-12T18:54:19.737Z,23.34
2018-10-12T18:55:19.606Z,23.31
2018-10-12T18:56:19.486Z,23.38
2018-10-12T18:57:19.402Z,23.32
2018-10-12T18:58:19.366Z,23.31
2018-10-12T18:59:19.130Z,23.29
2018-10-12T19:00:19.015Z,23.31
2018-10-12T19:01:18.878Z,23.32
2018-10-12T19:02:18.759Z,23.31
2018-10-12T19:03:18.659Z,23.32
2018-10-12T19:04:18.538Z,23.34
2018-10-12T19:05:18.382Z,23.34
2018-10-12T19:06:18.258Z,23.29
2018-10-12T19:07:18.127Z,23.32
2018-10-12T19:08:18.041Z,23.40
2018-10-12T19:09:17.876Z,23.31
2018-10-12T19:10:17.756Z,23.19
2018-10-12T19:11:17.891Z,23.34
2018-10-12T19:12:17.514Z,23.23
2018-10-12T19:13:17.427Z,23.35
2018-10-12T19:14:17.279Z,23.35
2018-10-12T19:15:17.158Z,23.29
2018-10-12T19:16:17.042Z,23.31
2018-10-12T19:17:16.921Z,23.22
2018-10-12T19:18:16.877Z,23.26
2018-10-12T19:19:16.694Z,23.26
2018-10-12T19:20:16.574Z,23.29
2018-10-12T19:21:16.463Z,23.32
2018-10-12T19:22:16.346Z,23.24
2018-10-12T19:23:16.404Z,23.38
2018-10-12T19:24:16.103Z,23.23
2018-10-12T19:25:15.987Z,23.35
2018-10-12T19:26:15.972Z,23.32
2018-10-12T19:27:15.766Z,23.32
2018-10-12T19:28:15.678Z,23.34
2018-10-12T19:29:15.526Z,23.26
2018-10-12T19:30:15.410Z,23.34
2018-10-12T19:31:15.421Z,23.22
2018-10-12T19:32:15.179Z,23.26
2018-10-12T19:33:15.090Z,23.17
2018-10-12T19:34:14.953Z,23.20
2018-10-12T19:35:14.825Z,23.32
2018-10-12T19:36:14.708Z,23.27
2018-10-12T19:37:14.589Z,23.27
2018-10-12T19:38:14.526Z,23.26
2018-10-12T19:39:14.354Z,23.24
2018-10-12T19:40:14.237Z,23.23
2018-10-12T19:41:14.122Z,23.22
2018-10-12T19:42:14.007Z,23.22
2018-10-12T19:43:13.912Z,23.15
2018-10-12T19:44:13.793Z,23.24
2018-10-12T19:45:13.657Z,23.19
2018-10-12T19:46:13.531Z,23.20
2018-10-12T19:47:13.419Z,23.15
2018-10-12T19:48:13.334Z,23.14
2018-10-12T19:49:13.179Z,23.22
2018-10-12T19:50:13.060Z,23.23
2018-10-12T19:51:12.946Z,23.22
2018-10-12T19:52:12.825Z,23.19
2018-10-12T19:53:12.858Z,23.20
2018-10-12T19:54:12.595Z,23.22
2018-10-12T19:55:12.474Z,23.23
2018-10-12T19:56:12.365Z,23.26
2018-10-12T19:57:12.251Z,23.22
2018-10-12T19:58:12.135Z,23.24
2018-10-12T19:59:12.145Z,23.20
2018-10-12T20:00:11.899Z,23.22
2018-10-12T20:01:11.781Z,23.20
2018-10-12T20:02:11.665Z,23.17
2018-10-12T20:03:11.611Z,23.20
2018-10-12T20:04:11.465Z,23.19
2018-10-12T20:05:11.330Z,23.15
2018-10-12T20:06:11.205Z,23.23
2018-10-12T20:07:11.135Z,23.20
2018-10-12T20:08:10.962Z,23.15
2018-10-12T20:09:10.881Z,23.20
2018-10-12T20:10:10.714Z,23.17
2018-10-12T20:11:10.594Z,23.15
2018-10-12T20:12:10.471Z,23.23
2018-10-12T20:13:10.354Z,23.26
2018-10-12T20:14:10.254Z,23.15
2018-10-12T20:15:10.118Z,23.11
2018-10-12T20:16:09.991Z,23.19
2018-10-12T20:17:09.869Z,23.22
2018-10-12T20:18:09.782Z,23.23
2018-10-12T20:19:09.659Z,23.14
2018-10-12T20:20:09.516Z,23.17
2018-10-12T20:21:09.393Z,23.15
2018-10-12T20:22:09.284Z,23.11
2018-10-12T20:23:09.160Z,23.20
2018-10-12T20:24:09.178Z,23.17
2018-10-12T20:25:08.926Z,23.14
2018-10-12T20:26:08.803Z,23.08
2018-10-12T20:27:08.676Z,23.08
2018-10-12T20:28:08.557Z,23.05
2018-10-12T20:29:08.460Z,23.11
2018-10-12T20:30:08.318Z,23.08
2018-10-12T20:31:08.254Z,23.15
2018-10-12T20:32:08.085Z,23.12
2018-10-12T20:33:07.967Z,23.08
2018-10-12T20:34:07.875Z,23.15
